Metar Cercanos

 

LEPA - Palma De Mallorc, Spain
Distance from station: ONO 38km
Actualización: Wed, 10-Aug-2022 10:30am CEST
Despejado
Despejado
 Viento del SSE
Viento: SSE 2 km/h
Temperatura: 32°C
Indice Calor: 34°C
Rocío: 20°C
Humedad: 49%
Barómetro: 1016 hPa
Resumen: Despejado
Visibility: greater than 10 km
2022/08/10 08:30 LEPA 100830Z 15001KT CAVOK 32/20 Q1016 NOSIG
LEMH - Mahon/Menorca Is, Spain
Distance from station: ENE 105km
Actualización: Wed, 10-Aug-2022 10:30am CEST
Despejado
Despejado
 Viento del SO
Viento: SO 7 km/h
Temperatura: 30°C
Indice Calor: 31°C
Rocío: 18°C
Humedad: 49%
Barómetro: 1017 hPa
Resumen: Despejado
Visibility: greater than 10 km
2022/08/10 08:30 LEMH 100830Z 22004KT 150V290 CAVOK 30/18 Q1017
 
LEIB - Ibiza/Es Codola, Spain
Distance from station: OSO 165km
Actualización: Wed, 10-Aug-2022 10:30am CEST
Despejado
Despejado
 Viento del E
Viento: E 19 km/h
Temperatura: 30°C
Indice Calor: 34°C
Rocío: 23°C
Humedad: 66%
Barómetro: 1016 hPa
Resumen: Despejado
Visibility: greater than 10 km
2022/08/10 08:30 LEIB 100830Z 08010KT 050V110 CAVOK 30/23 Q1016 NOSIG
LEBL - Barcelona Airpor, Spain
Distance from station: NNO 225km
Actualización: Wed, 10-Aug-2022 10:30am CEST
Despejado
Despejado
 Viento del ONO
Viento: ONO 6 km/h
Temperatura: 30°C
Indice Calor: 33°C
Rocío: 21°C
Humedad: 59%
Barómetro: 1016 hPa
Resumen: Despejado
Visibility: greater than 10 km
2022/08/10 08:30 LEBL 100830Z 30003KT 220V360 CAVOK 30/21 Q1016 NOSIG
 
LEVC - Valencia (civ/Mi, Spain
Distance from station: NO 188km
Actualización: Wed, 10-Aug-2022 10:30am CEST
Few Clouds
Few Clouds
 Viento del OSO
Viento: OSO 4 km/h
Temperatura: 30°C
Indice Calor: 31°C
Rocío: 19°C
Humedad: 52%
Barómetro: 1016 hPa
Clouds: Few Clouds
Visibility: 10 km
Cloud details: Few Clouds 762 m
2022/08/10 08:30 LEVC 100830Z 24002KT 9999 FEW025 30/19 Q1016 NOSIG
LEGE - Gerona/Costa Bra, Spain
Distance from station: N 276km
Actualización: Wed, 10-Aug-2022 10:30am CEST
Despejado
Despejado
 Viento del ENE
Viento: ENE 4 km/h
Temperatura: 31°C
Rocío: 12°C
Humedad: 31%
Barómetro: 1017 hPa
Resumen: Despejado
Visibility: greater than 10 km
2022/08/10 08:30 LEGE 100830Z 06002KT CAVOK 31/12 Q1017
 
LEAL - Alicante/El Alte, Spain
Distance from station: OSO 344km
Actualización: Wed, 10-Aug-2022 10:30am CEST
Despejado
Despejado
 Viento del ENE
Viento: ENE 15 km/h
Temperatura: 30°C
Indice Calor: 32°C
Rocío: 20°C
Humedad: 55%
Barómetro: 1016 hPa
Resumen: Despejado
Visibility: greater than 10 km
2022/08/10 08:30 LEAL 100830Z 07008KT 030V110 CAVOK 30/20 Q1016 NOSIG
LEAM - Almeria Airport, Spain
Distance from station: SSO 56km
Actualización: Wed, 10-Aug-2022 10:30am CEST
Despejado
Despejado
 Viento del NE
Viento: NE 26 km/h
Temperatura: 34°C
Rocío: 15°C
Humedad: 32%
Barómetro: 1014 hPa
Resumen: Despejado
Visibility: greater than 10 km
2022/08/10 08:30 LEAM 100830Z 05014KT CAVOK 34/15 Q1014
 
LEZG - Zaragoza (mil/Ci, Spain
Distance from station: NO 431km
Actualización: Wed, 10-Aug-2022 10:30am CEST
Despejado
Despejado
 Viento del E
Viento: E 7 km/h
Temperatura: 28°C
Indice Calor: 28°C
Rocío: 17°C
Humedad: 51%
Barómetro: 1018 hPa
Resumen: Despejado
Visibility: greater than 10 km
2022/08/10 08:30 LEZG 100830Z 08004KT 050V140 CAVOK 28/17 Q1018
LEMD - Madrid/Barajas, Spain
Distance from station: ONO 234km
Actualización: Wed, 10-Aug-2022 10:30am CEST
Despejado
Despejado
 Viento del NE
Viento: NE 7 km/h
Temperatura: 30°C
Rocío: 12°C
Humedad: 33%
Barómetro: 1018 hPa
Resumen: Despejado
Visibility: greater than 10 km
2022/08/10 08:30 LEMD 100830Z 05004KT 310V100 CAVOK 30/12 Q1018 NOSIG
 
LEGR - Granada Airport, Spain
Distance from station: OSO 62km
Actualización: Wed, 10-Aug-2022 10:30am CEST
Despejado
Despejado
 Viento del varies
Viento: varies 4 km/h
Temperatura: 28°C
Rocío: 11°C
Humedad: 35%
Barómetro: 1016 hPa
Resumen: Despejado
Visibility: greater than 10 km
2022/08/10 08:30 LEGR 100830Z VRB02KT CAVOK 28/11 Q1016
LEMG - Malaga (civ/Mil), Spain
Distance from station: OSO 227km
Actualización: Wed, 10-Aug-2022 10:30am CEST
Despejado
Despejado
 Viento del NO
Viento: NO 6 km/h
Temperatura: 28°C
Indice Calor: 30°C
Rocío: 21°C
Humedad: 66%
Barómetro: 1014 hPa
Resumen: Despejado
Visibility: greater than 10 km
2022/08/10 08:30 LEMG 100830Z 32003KT 270V060 CAVOK 28/21 Q1014 NOSIG
 
LEZL - Sevilla (civ/Mil, Spain
Distance from station: S 318km
Actualización: Wed, 10-Aug-2022 10:30am CEST
Few Clouds
Few Clouds
 Viento del O
Viento: O 9 km/h
Temperatura: 26°C
Rocío: 20°C
Humedad: 70%
Barómetro: 1014 hPa
Clouds: Few Clouds
Visibility: 10 km
Cloud details: Few Clouds 640 m
2022/08/10 08:30 LEZL 100830Z 26005KT 210V320 9999 FEW021 26/20 Q1014 NOSIG
LEVT - Vitoria, Spain
Distance from station: NO 226km
Actualización: Wed, 10-Aug-2022 10:30am CEST
Despejado
Despejado
 Viento del varies
Viento: varies 2 km/h
Temperatura: 25°C
Rocío: 16°C
Humedad: 57%
Barómetro: 1019 hPa
Resumen: Despejado
Visibility: greater than 10 km
2022/08/10 08:30 LEVT 100830Z VRB01KT CAVOK 25/16 Q1019
 
LEBB - Bilbao/Sondica, Spain
Distance from station: NNO 235km
Actualización: Wed, 10-Aug-2022 10:30am CEST
Despejado
Despejado
 Viento del ESE
Viento: ESE 11 km/h
Temperatura: 28°C
Indice Calor: 29°C
Rocío: 19°C
Humedad: 58%
Barómetro: 1015 hPa
Resumen: Despejado
Visibility: greater than 10 km
2022/08/10 08:30 LEBB 100830Z 11006KT 080V140 CAVOK 28/19 Q1015 NOSIG
LESO - San Sebastian/Fu, Spain
Distance from station: N 231km
Actualización: Wed, 10-Aug-2022 10:30am CEST
Despejado
Despejado
 Viento del SSE
Viento: SSE 6 km/h
Temperatura: 28°C
Indice Calor: 29°C
Rocío: 20°C
Humedad: 62%
Barómetro: 1015 hPa
Resumen: Despejado
Visibility: greater than 10 km
2022/08/10 08:30 LESO 100830Z 16003KT 110V200 CAVOK 28/20 Q1015
 
LEVD - Valladolid(Mil/C, Spain
Distance from station: ONO 239km
Actualización: Wed, 10-Aug-2022 10:30am CEST
Few Clouds
Few Clouds
 Viento del NE
Viento: NE 20 km/h
Temperatura: 25°C
Rocío: 12°C
Humedad: 44%
Barómetro: 1020 hPa
Clouds: Few Clouds
Visibility: 10 km
Cloud details: Few Clouds 1372 m
2022/08/10 08:30 LEVD 100830Z 04011KT 9999 FEW045TCU 25/12 Q1020
LESA - Salamanca (civ/M, Spain
Distance from station: ONO 349km
Actualización: Wed, 10-Aug-2022 10:30am CEST
Few Clouds
Few Clouds
 Viento del ENE
Viento: ENE 15 km/h
Temperatura: 25°C
Rocío: 14°C
Humedad: 51%
Barómetro: 1019 hPa
Clouds: Few Clouds
Visibility: 10 km
Cloud details: Few Clouds 1494 m
2022/08/10 08:30 LESA 100830Z 06008KT 020V110 9999 FEW049CB 25/14 Q1019
 
LEXJ - Santander/Paraya, Spain
Distance from station: NNO 247km
Actualización: Wed, 10-Aug-2022 10:30am CEST
Despejado
Despejado
 Viento del varies
Viento: varies 4 km/h
Temperatura: 25°C
Rocío: 18°C
Humedad: 65%
Barómetro: 1014 hPa
Resumen: Despejado
Visibility: greater than 10 km
2022/08/10 08:30 LEXJ 100830Z VRB02KT CAVOK 25/18 Q1014
LEAS - Asturias/Aviles, Spain
Distance from station: NO 214km
Actualización: Wed, 10-Aug-2022 10:30am CEST
Few Clouds
Few Clouds
 Viento del varies
Viento: varies 7 km/h
Temperatura: 23°C
Rocío: 19°C
Humedad: 78%
Barómetro: 1015 hPa
Clouds: Few Clouds
Visibility: 10 km
Cloud details: Few Clouds 1433 m
2022/08/10 08:30 LEAS 100830Z VRB04KT 9999 FEW047 23/19 Q1015 NOSIG
 
LECO - La Coruna/Alvedr, Spain
Distance from station: ONO 222km
Actualización: Wed, 10-Aug-2022 10:30am CEST
Despejado
Despejado
 Viento del S
Viento: S 6 km/h
Temperatura: 22°C
Rocío: 18°C
Humedad: 78%
Barómetro: 1014 hPa
Resumen: Despejado
Visibility: greater than 10 km
2022/08/10 08:30 LECO 100830Z 17003KT 140V200 CAVOK 22/18 Q1014 NOSIG
LEVX - Vigo/Peinador, Spain
Distance from station: O 214km
Actualización: Wed, 10-Aug-2022 10:30am CEST
Patches of fog, Few clouds
Patches of fog, Few clouds
 Viento del varies
Viento: varies 4 km/h
Temperatura: 21°C
Rocío: 18°C
Humedad: 83%
Barómetro: 1015 hPa
Resumen: Patches of Fog
Clouds: Few Clouds
Visibility: 10 km
Cloud details: Few Clouds 61 m
2022/08/10 08:30 LEVX 100830Z VRB02KT 9999 2000NE BCFG FEW002 21/18 Q1015 NOSIG